宮崎空港の過去48時間の天気

宮崎空港 (Miyazaki)

現在時刻: 8/13 17:54 JST (8/13 08:54 UTC) 以下の時間は現地時間です。

過去48時間のMETAR気象情報
時間 風向 風速(m/s) 視程 気温(℃) 湿度(%) 気圧(hPa) 天気現象
13 17:00 西北西 6 10km以上 32 63 1008
13 16:16 南東 3 10km以上 31 70 1008 周辺でしゅう雨
13 16:00 南東 4 10km以上 29 84 1008 雷 周辺でしゅう雨
13 15:00 北北西 7 10km以上 33 59 1008 雷 周辺でしゅう雨
13 14:00 5 10km以上 35 56 1007 周辺でしゅう雨
13 13:40 南東 5 10km以上 34 63 1008
13 13:00 南東 4 10km以上 32 71 1007
13 12:04 南東 5 10km以上 33 67 1008
13 12:00 南東 5 10km以上 31 70 1008
13 11:00 西南西 6 10km以上 34 60 1008
13 10:00 西北西 7 10km以上 32 67 1008
13 09:00 西 7 10km以上 32 67 1008
13 08:00 西 7 10km以上 30 75 1008
13 07:00 西 8 10km以上 30 70 1008
13 06:10 西 7 10km以上 29 79 1008
RJFM 130800Z 29012KT 9999 FEW025 SCT090 BKN140 32/24 Q1008
RJFM 130716Z 14005KT 090V190 9999 VCSH FEW020 FEW030CB SCT040 BKN150 31/25 Q1008 RMK 1CU020 1CB030 3CU040 5AC150 A2978 CB 25KM SE MOV E
RJFM 130700Z 13008KT 080V190 9999 TS VCSH FEW020 FEW030CB SCT040 BKN160 29/26 Q1008
RJFM 130600Z 33013KT 9999 TS VCSH FEW020 FEW030CB SCT060 BKN/// 33/24 Q1008
RJFM 130500Z 18010KT 140V210 9999 VCSH FEW020 FEW030CB SCT040 BKN060 35/25 Q1007
RJFM 130440Z 14009KT 9999 FEW030 SCT040 BKN/// 34/26 Q1008 RMK 1CU030 4CU040 A2977
RJFM 130400Z 14008KT 110V190 9999 FEW030 SCT040 BKN/// 32/26 Q1007
RJFM 130304Z 13009KT 100V180 9999 FEW030 SCT040 BKN/// 33/26 Q1008 RMK 1CU030 4CU040 A2977
RJFM 130300Z 13010KT 9999 FEW030 SCT040 BKN/// 31/25 Q1008
RJFM 130200Z 24011KT 200V280 9999 FEW030 BKN/// 34/25 Q1008
RJFM 130100Z 29013KT 9999 FEW025 SCT070 BKN/// 32/25 Q1008
RJFM 130000Z 28014KT 9999 FEW025 BKN070 BKN190 32/25 Q1008
RJFM 122300Z 27013KT 9999 FEW020 SCT130 BKN150 30/25 Q1008
RJFM 122200Z 27015KT 9999 FEW025 SCT130 BKN150 30/24 Q1008
RJFM 122110Z 27014KT 9999 FEW030 BKN080 29/25 Q1008 RMK 1CU030 5AC080 A2977